createdAt,value
2018-10-02T00:01:36.729Z,7.50
2018-10-02T00:04:05.173Z,7.50
2018-10-02T00:06:33.553Z,7.50
2018-10-02T00:09:01.937Z,7.40
2018-10-02T00:11:35.769Z,7.40
2018-10-02T00:14:37.064Z,7.40
2018-10-02T00:17:05.513Z,7.30
2018-10-02T00:19:33.885Z,7.30
2018-10-02T00:22:02.249Z,7.30
2018-10-02T00:24:31.021Z,7.30
2018-10-02T00:27:00.094Z,7.40
2018-10-02T00:29:28.448Z,7.40
2018-10-02T00:31:56.939Z,7.50
2018-10-02T00:34:25.293Z,7.50
2018-10-02T00:36:53.684Z,7.60
2018-10-02T00:39:22.089Z,7.70
2018-10-02T00:41:50.480Z,7.70
2018-10-02T00:44:18.873Z,7.70
2018-10-02T00:46:50.277Z,7.60
2018-10-02T00:49:18.669Z,7.50
2018-10-02T00:51:47.181Z,7.50
2018-10-02T00:54:15.589Z,7.40
2018-10-02T00:56:43.963Z,7.30
2018-10-02T00:59:12.440Z,7.30
2018-10-02T01:01:40.815Z,7.30
2018-10-02T01:04:09.214Z,7.30
2018-10-02T01:06:37.685Z,7.20
2018-10-02T01:09:08.472Z,7.20
2018-10-02T01:11:36.912Z,7.20
2018-10-02T01:14:05.270Z,7.20
2018-10-02T01:16:33.649Z,7.20
2018-10-02T01:19:02.985Z,7.20
2018-10-02T01:21:31.348Z,7.20
2018-10-02T01:23:59.761Z,7.20
2018-10-02T01:26:28.222Z,7.20
2018-10-02T01:28:56.608Z,7.20
2018-10-02T01:31:24.989Z,7.20
2018-10-02T01:33:53.408Z,7.20
2018-10-02T01:36:21.777Z,7.20
2018-10-02T01:38:50.181Z,7.20
2018-10-02T01:41:18.592Z,7.10
2018-10-02T01:43:46.996Z,7.10
2018-10-02T01:46:15.528Z,7.10
2018-10-02T01:48:43.978Z,7.10
2018-10-02T01:51:12.452Z,7.00
2018-10-02T01:53:40.816Z,7.00
2018-10-02T01:56:09.265Z,6.90
2018-10-02T01:58:37.941Z,6.90
2018-10-02T02:01:06.337Z,6.80
2018-10-02T02:03:34.781Z,6.80
2018-10-02T02:06:03.792Z,6.70
2018-10-02T02:08:34.344Z,6.60
2018-10-02T02:11:03.629Z,6.60
2018-10-02T02:13:31.998Z,6.50
2018-10-02T02:16:00.464Z,6.50
2018-10-02T02:18:28.897Z,6.50
2018-10-02T02:20:57.275Z,6.50
2018-10-02T02:23:25.696Z,6.40
2018-10-02T02:25:54.078Z,6.40
2018-10-02T02:28:22.440Z,6.40
2018-10-02T02:30:50.921Z,6.40
2018-10-02T02:33:19.299Z,6.40
2018-10-02T02:35:47.661Z,6.40
2018-10-02T02:38:16.110Z,6.30
2018-10-02T02:40:44.493Z,6.30
2018-10-02T02:43:12.897Z,6.30
2018-10-02T02:45:41.326Z,6.30
2018-10-02T02:48:15.085Z,6.30
2018-10-02T02:50:50.558Z,6.30
2018-10-02T02:53:19.812Z,6.30
2018-10-02T02:55:48.181Z,6.40
2018-10-02T02:58:16.621Z,6.40
2018-10-02T03:00:44.969Z,6.40
2018-10-02T03:03:13.373Z,6.30
2018-10-02T03:05:41.997Z,6.30
2018-10-02T03:08:10.374Z,6.30
2018-10-02T03:10:38.740Z,6.30
2018-10-02T03:13:07.209Z,6.30
2018-10-02T03:15:36.330Z,6.30
2018-10-02T03:18:04.709Z,6.30
2018-10-02T03:20:33.092Z,6.30
2018-10-02T03:23:01.502Z,6.30
2018-10-02T03:25:29.929Z,6.30
2018-10-02T03:27:58.341Z,6.00
2018-10-02T03:30:26.709Z,6.30
2018-10-02T03:32:55.113Z,6.40
2018-10-02T03:35:23.559Z,6.30
2018-10-02T03:37:51.969Z,6.30
2018-10-02T03:40:20.369Z,6.30
2018-10-02T03:42:49.123Z,6.30
2018-10-02T03:45:17.520Z,6.30
2018-10-02T03:47:46.155Z,6.30
2018-10-02T03:50:14.643Z,6.30
2018-10-02T03:52:43.117Z,6.30
2018-10-02T03:55:11.505Z,6.30
2018-10-02T03:57:40.019Z,6.30
2018-10-02T04:00:08.753Z,6.30
2018-10-02T04:02:37.799Z,6.30
2018-10-02T04:05:06.329Z,6.40
2018-10-02T04:07:35.355Z,6.40
2018-10-02T04:10:03.959Z,6.40
2018-10-02T04:12:32.444Z,6.40
2018-10-02T04:15:00.884Z,6.40
2018-10-02T04:17:29.363Z,6.40
2018-10-02T04:19:58.018Z,6.40
2018-10-02T04:22:26.685Z,6.40
2018-10-02T04:24:55.237Z,6.40
2018-10-02T04:27:23.692Z,6.50
2018-10-02T04:29:52.308Z,6.50
2018-10-02T04:32:21.386Z,6.50
2018-10-02T04:34:49.993Z,6.40
2018-10-02T04:37:18.687Z,6.50
2018-10-02T04:39:47.184Z,6.50
2018-10-02T04:42:17.505Z,6.50
2018-10-02T04:44:45.865Z,6.60
2018-10-02T04:47:14.266Z,6.60
2018-10-02T04:49:43.169Z,6.60
2018-10-02T04:52:11.720Z,6.60
2018-10-02T04:54:40.105Z,6.60
2018-10-02T04:57:08.566Z,6.60
2018-10-02T04:59:36.977Z,6.70
2018-10-02T05:02:05.342Z,6.70
2018-10-02T05:04:33.777Z,6.70
2018-10-02T05:07:02.198Z,6.70
2018-10-02T05:09:30.557Z,6.70
2018-10-02T05:11:58.984Z,6.70
2018-10-02T05:14:27.349Z,6.70
2018-10-02T05:16:55.779Z,6.70
2018-10-02T05:19:24.337Z,6.70
2018-10-02T05:21:52.745Z,6.80
2018-10-02T05:24:21.150Z,6.80
2018-10-02T05:26:49.595Z,6.80
2018-10-02T05:29:17.974Z,6.80
2018-10-02T05:31:46.445Z,6.80
2018-10-02T05:34:14.888Z,6.80
2018-10-02T05:36:43.264Z,6.90
2018-10-02T05:39:11.681Z,6.90
2018-10-02T05:41:40.513Z,6.90
2018-10-02T05:44:08.907Z,6.90
2018-10-02T05:46:37.269Z,6.90
2018-10-02T05:49:05.673Z,6.90
2018-10-02T05:51:34.045Z,7.00
2018-10-02T05:54:02.453Z,7.00
2018-10-02T05:56:30.874Z,7.00
2018-10-02T05:58:59.267Z,7.00
2018-10-02T06:01:27.692Z,7.00
2018-10-02T06:03:56.171Z,7.00
2018-10-02T06:06:24.618Z,7.00
2018-10-02T06:08:53.286Z,7.00
2018-10-02T06:11:21.713Z,7.00
2018-10-02T06:13:50.151Z,7.00
2018-10-02T06:16:18.633Z,7.10
2018-10-02T06:18:47.210Z,7.10
2018-10-02T06:21:15.592Z,7.10
2018-10-02T06:23:43.972Z,7.10
2018-10-02T06:26:12.410Z,7.10
2018-10-02T06:28:40.796Z,7.10
2018-10-02T06:31:09.181Z,7.10
2018-10-02T06:33:37.629Z,7.10
2018-10-02T06:36:06.144Z,7.10
2018-10-02T06:38:34.612Z,7.10
2018-10-02T06:41:03.043Z,7.10
2018-10-02T06:43:31.425Z,7.10
2018-10-02T06:45:59.832Z,7.10
2018-10-02T06:48:28.253Z,7.10
2018-10-02T06:50:56.746Z,7.20
2018-10-02T06:53:25.102Z,7.10
2018-10-02T06:55:53.549Z,7.10
2018-10-02T06:58:21.933Z,6.90
2018-10-02T07:00:50.361Z,7.20
2018-10-02T07:03:18.764Z,7.20
2018-10-02T07:05:47.142Z,7.20
2018-10-02T07:08:15.501Z,7.20
2018-10-02T07:10:43.947Z,7.20
2018-10-02T07:13:12.323Z,7.20
2018-10-02T07:15:41.616Z,7.30
2018-10-02T07:18:10.053Z,7.30
2018-10-02T07:20:38.493Z,7.30
2018-10-02T07:23:06.812Z,7.30
2018-10-02T07:25:35.262Z,7.30
2018-10-02T07:28:03.820Z,7.20
2018-10-02T07:30:32.118Z,7.30
2018-10-02T07:33:00.601Z,7.30
2018-10-02T07:35:28.988Z,7.30
2018-10-02T07:37:57.342Z,7.40
2018-10-02T07:40:25.848Z,7.40
2018-10-02T07:42:54.210Z,7.50
2018-10-02T07:45:22.596Z,7.50
2018-10-02T07:47:51.015Z,7.60
2018-10-02T07:50:19.396Z,7.70
2018-10-02T07:52:47.881Z,7.70
2018-10-02T07:55:16.272Z,7.80
2018-10-02T07:57:44.641Z,7.80
2018-10-02T08:00:13.045Z,7.70
2018-10-02T08:02:42.025Z,7.80
2018-10-02T08:05:10.449Z,7.70
2018-10-02T08:07:38.808Z,7.70
2018-10-02T08:10:07.286Z,7.60
2018-10-02T08:12:35.657Z,7.60
2018-10-02T08:15:04.184Z,7.60
2018-10-02T08:17:32.587Z,7.60
2018-10-02T08:20:01.026Z,7.60
2018-10-02T08:22:29.357Z,7.60
2018-10-02T08:24:57.781Z,7.60
2018-10-02T08:27:26.164Z,7.60
2018-10-02T08:29:54.589Z,7.70
2018-10-02T08:32:23.026Z,7.70
2018-10-02T08:34:51.383Z,7.70
2018-10-02T08:37:19.774Z,7.70
2018-10-02T08:39:48.208Z,7.70
2018-10-02T08:42:16.636Z,7.70
2018-10-02T08:44:45.086Z,7.60
2018-10-02T08:47:13.477Z,7.70
2018-10-02T08:49:42.093Z,7.60
2018-10-02T08:52:10.617Z,7.60
2018-10-02T08:54:38.904Z,7.60
2018-10-02T08:57:07.293Z,7.60
2018-10-02T08:59:35.677Z,7.60
2018-10-02T09:02:04.098Z,7.70
2018-10-02T09:04:32.453Z,7.70
2018-10-02T09:07:00.857Z,7.70
2018-10-02T09:09:29.304Z,7.70
2018-10-02T09:11:57.839Z,7.70
2018-10-02T09:14:26.393Z,7.80
2018-10-02T09:16:54.954Z,7.70
2018-10-02T09:19:23.436Z,7.70
2018-10-02T09:21:52.062Z,7.70
2018-10-02T09:24:20.532Z,7.70
2018-10-02T09:26:48.955Z,7.70
2018-10-02T09:29:17.337Z,7.70
2018-10-02T09:31:51.065Z,7.80
2018-10-02T09:34:24.839Z,7.80
2018-10-02T09:36:58.508Z,7.80
2018-10-02T09:39:32.301Z,7.90
2018-10-02T09:42:06.044Z,7.80
2018-10-02T09:44:34.434Z,7.90
2018-10-02T09:47:02.818Z,7.80
2018-10-02T09:49:31.233Z,7.80
2018-10-02T09:51:59.609Z,7.80
2018-10-02T09:54:28.043Z,7.90
2018-10-02T09:56:56.448Z,7.90
2018-10-02T09:59:24.804Z,7.90
2018-10-02T10:01:58.440Z,7.90
2018-10-02T10:04:26.928Z,8.00
2018-10-02T10:06:55.224Z,8.10
2018-10-02T10:09:23.643Z,8.00
2018-10-02T10:11:52.041Z,8.00
2018-10-02T10:14:20.405Z,8.00
2018-10-02T10:16:48.844Z,8.10
2018-10-02T10:19:17.184Z,8.10
2018-10-02T10:21:45.552Z,8.10
2018-10-02T10:24:14.678Z,8.10
2018-10-02T10:26:43.150Z,8.20
2018-10-02T10:29:11.489Z,8.20
2018-10-02T10:31:39.921Z,8.20
2018-10-02T10:34:08.369Z,8.30
2018-10-02T10:36:36.727Z,8.30
2018-10-02T10:39:07.310Z,8.20
2018-10-02T10:41:35.665Z,8.30
2018-10-02T10:44:04.065Z,8.30
2018-10-02T10:46:32.576Z,8.30
2018-10-02T10:49:00.946Z,8.30
2018-10-02T10:51:29.335Z,8.30
2018-10-02T10:53:57.781Z,8.40
2018-10-02T10:56:26.234Z,8.40
2018-10-02T10:58:54.665Z,8.40
2018-10-02T11:01:23.077Z,8.50
2018-10-02T11:03:51.446Z,8.50
2018-10-02T11:06:19.869Z,8.50
2018-10-02T11:08:48.404Z,8.60
2018-10-02T11:11:16.806Z,8.60
2018-10-02T11:13:45.247Z,8.60
2018-10-02T11:16:13.678Z,8.60
2018-10-02T11:18:42.069Z,8.60
2018-10-02T11:21:10.471Z,8.60
2018-10-02T11:23:38.895Z,8.60
2018-10-02T11:26:07.285Z,8.60
2018-10-02T11:28:35.669Z,8.70
2018-10-02T11:31:04.108Z,8.70
2018-10-02T11:33:32.497Z,8.80
2018-10-02T11:36:00.881Z,8.80
2018-10-02T11:38:29.321Z,8.80
2018-10-02T11:40:57.692Z,8.70
2018-10-02T11:43:26.127Z,8.80
2018-10-02T11:45:54.504Z,8.80
2018-10-02T11:48:22.866Z,8.80
2018-10-02T11:50:51.274Z,8.80
2018-10-02T11:53:19.742Z,8.90
2018-10-02T11:55:48.222Z,8.90
2018-10-02T11:58:16.497Z,8.90
2018-10-02T12:00:45.736Z,9.00
2018-10-02T12:03:14.151Z,9.00
2018-10-02T12:05:42.518Z,9.00
2018-10-02T12:08:10.934Z,9.10
2018-10-02T12:10:39.309Z,9.10
2018-10-02T12:13:07.740Z,9.10
2018-10-02T12:15:36.141Z,9.10
2018-10-02T12:18:17.816Z,9.10
2018-10-02T12:20:46.916Z,9.10
2018-10-02T12:23:16.249Z,9.10
2018-10-02T12:25:44.617Z,9.10
2018-10-02T12:28:13.113Z,9.20
2018-10-02T12:30:41.557Z,9.20
2018-10-02T12:33:09.938Z,9.20
2018-10-02T12:35:38.391Z,9.30
2018-10-02T12:38:06.793Z,9.30
2018-10-02T12:40:35.132Z,9.30
2018-10-02T12:43:03.572Z,9.40
2018-10-02T12:45:31.940Z,9.50
2018-10-02T12:48:00.305Z,9.50
2018-10-02T12:50:28.729Z,9.60
2018-10-02T12:52:57.318Z,9.60
2018-10-02T12:55:25.501Z,9.70
2018-10-02T12:57:53.895Z,9.70
2018-10-02T13:00:22.305Z,9.80
2018-10-02T13:02:50.677Z,9.80
2018-10-02T13:05:19.106Z,9.80
2018-10-02T13:07:47.487Z,9.80
2018-10-02T13:10:15.913Z,9.80
2018-10-02T13:12:44.335Z,9.80
2018-10-02T13:15:12.697Z,9.90
2018-10-02T13:17:41.057Z,9.90
2018-10-02T13:20:09.508Z,10.00
2018-10-02T13:22:37.932Z,10.00
2018-10-02T13:25:06.375Z,10.00
2018-10-02T13:27:34.847Z,10.10
2018-10-02T13:30:03.264Z,10.20
2018-10-02T13:32:31.801Z,10.20
2018-10-02T13:35:00.253Z,10.30
2018-10-02T13:37:28.690Z,10.30
2018-10-02T13:39:57.049Z,10.40
2018-10-02T13:42:25.469Z,10.30
2018-10-02T13:44:53.840Z,10.40
2018-10-02T13:47:22.208Z,10.50
2018-10-02T13:49:50.644Z,11.50
2018-10-02T13:52:19.037Z,10.50
2018-10-02T13:54:47.920Z,10.50
2018-10-02T13:57:16.432Z,10.50
2018-10-02T13:59:44.886Z,10.50
2018-10-02T14:02:13.327Z,10.50
2018-10-02T14:04:41.725Z,10.60
2018-10-02T14:07:10.103Z,10.60
2018-10-02T14:09:38.519Z,10.70
2018-10-02T14:12:06.980Z,10.70
2018-10-02T14:14:35.393Z,10.70
2018-10-02T14:17:03.776Z,10.70
2018-10-02T14:19:32.218Z,10.80
2018-10-02T14:22:00.595Z,10.80
2018-10-02T14:24:28.961Z,10.90
2018-10-02T14:26:57.378Z,10.90
2018-10-02T14:29:25.803Z,10.90
2018-10-02T14:31:54.269Z,11.00
2018-10-02T14:34:22.716Z,11.00
2018-10-02T14:36:51.113Z,11.00
2018-10-02T14:39:19.481Z,11.10
2018-10-02T14:41:47.895Z,11.10
2018-10-02T14:44:16.233Z,11.10
2018-10-02T14:46:44.603Z,11.10
2018-10-02T14:49:13.042Z,11.10
2018-10-02T14:51:41.440Z,11.20
2018-10-02T14:54:09.813Z,11.20
2018-10-02T14:56:38.313Z,11.20
2018-10-02T14:59:06.759Z,11.20
2018-10-02T15:01:35.182Z,11.20
2018-10-02T15:04:03.641Z,11.30
2018-10-02T15:06:32.043Z,11.30
2018-10-02T15:09:00.415Z,11.30
2018-10-02T15:11:28.840Z,11.30
2018-10-02T15:13:57.217Z,11.40
2018-10-02T15:16:25.565Z,11.50
2018-10-02T15:18:54.124Z,11.50
2018-10-02T15:21:22.506Z,11.60
2018-10-02T15:23:50.879Z,11.60
2018-10-02T15:26:19.609Z,11.70
2018-10-02T15:28:48.039Z,11.70
2018-10-02T15:31:16.459Z,11.80
2018-10-02T15:33:45.001Z,11.80
2018-10-02T15:36:13.394Z,11.80
2018-10-02T15:38:41.769Z,11.80
2018-10-02T15:41:10.441Z,11.90
2018-10-02T15:43:38.785Z,11.80
2018-10-02T15:46:07.153Z,11.80
2018-10-02T15:48:35.621Z,11.80
2018-10-02T15:51:04.042Z,11.80
2018-10-02T15:53:32.452Z,11.80
2018-10-02T15:56:01.112Z,11.80
2018-10-02T15:58:29.510Z,11.70
2018-10-02T16:00:57.941Z,11.70
2018-10-02T16:03:26.379Z,11.70
2018-10-02T16:05:54.785Z,11.70
2018-10-02T16:08:23.181Z,11.70
2018-10-02T16:10:51.583Z,11.60
2018-10-02T16:13:20.081Z,11.60
2018-10-02T16:15:48.432Z,11.60
2018-10-02T16:18:16.818Z,11.60
2018-10-02T16:20:45.189Z,11.60
2018-10-02T16:23:13.553Z,11.60
2018-10-02T16:25:41.973Z,11.60
2018-10-02T16:28:10.317Z,11.50
2018-10-02T16:30:38.697Z,11.50
2018-10-02T16:33:07.132Z,11.50
2018-10-02T16:35:35.474Z,11.50
2018-10-02T16:38:03.817Z,11.50
2018-10-02T16:40:32.260Z,11.40
2018-10-02T16:43:00.646Z,11.40
2018-10-02T16:45:29.006Z,11.40
2018-10-02T16:47:57.439Z,11.40
2018-10-02T16:50:26.203Z,11.40
2018-10-02T16:52:54.564Z,11.40
2018-10-02T16:55:22.989Z,11.40
2018-10-02T16:57:51.333Z,11.40
2018-10-02T17:00:20.460Z,11.40
2018-10-02T17:02:48.881Z,11.30
2018-10-02T17:05:17.298Z,11.30
2018-10-02T17:07:45.681Z,11.30
2018-10-02T17:10:14.109Z,11.30
2018-10-02T17:12:42.490Z,11.20
2018-10-02T17:15:10.911Z,11.20
2018-10-02T17:17:39.312Z,11.20
2018-10-02T17:20:07.990Z,11.20
2018-10-02T17:22:36.355Z,11.20
2018-10-02T17:25:04.788Z,11.20
2018-10-02T17:27:33.139Z,11.20
2018-10-02T17:30:01.548Z,11.20
2018-10-02T17:32:30.026Z,11.10
2018-10-02T17:34:58.425Z,11.20
2018-10-02T17:37:26.858Z,11.20
2018-10-02T17:39:55.325Z,11.90
2018-10-02T17:42:23.683Z,11.20
2018-10-02T17:44:52.107Z,11.20
2018-10-02T17:47:21.473Z,11.20
2018-10-02T17:49:49.881Z,11.30
2018-10-02T17:52:18.224Z,11.30
2018-10-02T17:54:46.824Z,11.30
2018-10-02T17:57:15.177Z,11.20
2018-10-02T17:59:43.557Z,11.30
2018-10-02T18:02:12.025Z,11.20
2018-10-02T18:04:40.456Z,11.20
2018-10-02T18:07:08.820Z,11.20
2018-10-02T18:09:37.256Z,11.10
2018-10-02T18:12:05.629Z,11.10
2018-10-02T18:14:34.257Z,11.00
2018-10-02T18:17:02.760Z,11.00
2018-10-02T18:19:31.160Z,11.10
2018-10-02T18:21:59.574Z,11.10
2018-10-02T18:24:28.073Z,11.10
2018-10-02T18:26:56.473Z,11.10
2018-10-02T18:29:24.899Z,11.10
2018-10-02T18:31:54.440Z,11.00
2018-10-02T18:34:22.857Z,10.90
2018-10-02T18:36:51.537Z,10.90
2018-10-02T18:39:20.048Z,10.80
2018-10-02T18:41:48.433Z,10.80
2018-10-02T18:44:16.852Z,10.80
2018-10-02T18:46:45.312Z,10.70
2018-10-02T18:49:13.695Z,10.70
2018-10-02T18:51:42.120Z,10.70
2018-10-02T18:54:10.700Z,10.70
2018-10-02T18:56:39.133Z,10.70
2018-10-02T18:59:07.509Z,10.70
2018-10-02T19:01:35.945Z,10.70
2018-10-02T19:04:04.341Z,10.80
2018-10-02T19:06:32.833Z,10.80
2018-10-02T19:09:06.660Z,10.90
2018-10-02T19:11:40.402Z,10.90
2018-10-02T19:14:08.814Z,10.90
2018-10-02T19:16:37.169Z,10.90
2018-10-02T19:19:05.916Z,10.90
2018-10-02T19:21:34.339Z,10.90
2018-10-02T19:24:02.713Z,10.90
2018-10-02T19:26:31.101Z,11.00
2018-10-02T19:28:59.537Z,11.00
2018-10-02T19:31:33.284Z,11.00
2018-10-02T19:34:01.846Z,11.00
2018-10-02T19:36:30.228Z,10.90
2018-10-02T19:39:00.526Z,10.90
2018-10-02T19:41:29.565Z,10.90
2018-10-02T19:43:57.967Z,10.80
2018-10-02T19:46:27.829Z,10.70
2018-10-02T19:48:56.332Z,10.60
2018-10-02T19:51:30.204Z,10.50
2018-10-02T19:53:58.635Z,10.50
2018-10-02T19:56:27.026Z,10.40
2018-10-02T19:58:55.398Z,10.30
2018-10-02T20:01:23.913Z,10.20
2018-10-02T20:03:52.291Z,10.20
2018-10-02T20:06:20.664Z,10.10
2018-10-02T20:08:49.063Z,10.10
2018-10-02T20:11:17.721Z,10.10
2018-10-02T20:13:46.165Z,10.10
2018-10-02T20:16:14.582Z,10.10
2018-10-02T20:18:42.992Z,10.10
2018-10-02T20:21:11.357Z,10.10
2018-10-02T20:23:39.785Z,10.10
2018-10-02T20:26:08.194Z,10.10
2018-10-02T20:28:36.621Z,10.10
2018-10-02T20:31:05.083Z,10.10
2018-10-02T20:33:33.487Z,10.10
2018-10-02T20:36:01.872Z,10.10
2018-10-02T20:38:30.313Z,10.00
2018-10-02T20:40:58.726Z,10.00
2018-10-02T20:43:27.153Z,9.90
2018-10-02T20:45:55.585Z,9.90
2018-10-02T20:48:23.953Z,9.90
2018-10-02T20:50:52.701Z,9.90
2018-10-02T20:53:21.125Z,9.90
2018-10-02T20:55:49.481Z,9.80
2018-10-02T20:58:17.848Z,9.80
2018-10-02T21:00:46.292Z,9.90
2018-10-02T21:03:14.669Z,9.90
2018-10-02T21:05:43.043Z,9.90
2018-10-02T21:08:11.424Z,9.90
2018-10-02T21:10:39.805Z,9.90
2018-10-02T21:13:08.201Z,10.00
2018-10-02T21:15:37.014Z,10.00
2018-10-02T21:18:05.213Z,10.00
2018-10-02T21:20:33.605Z,10.00
2018-10-02T21:23:02.049Z,10.00
2018-10-02T21:25:30.465Z,10.00
2018-10-02T21:27:58.869Z,10.00
2018-10-02T21:30:27.306Z,9.90
2018-10-02T21:32:55.668Z,9.90
2018-10-02T21:35:24.025Z,9.90
2018-10-02T21:37:53.124Z,9.90
2018-10-02T21:40:21.551Z,9.90
2018-10-02T21:42:49.895Z,9.90
2018-10-02T21:45:18.297Z,9.80
2018-10-02T21:47:46.692Z,9.80
2018-10-02T21:50:15.085Z,9.80
2018-10-02T21:52:43.480Z,9.70
2018-10-02T21:55:11.937Z,9.70
2018-10-02T21:57:40.552Z,9.70
2018-10-02T22:00:09.494Z,9.70
2018-10-02T22:02:37.852Z,9.70
2018-10-02T22:05:06.276Z,9.80
2018-10-02T22:07:34.704Z,9.80
2018-10-02T22:10:03.094Z,9.80
2018-10-02T22:12:31.473Z,9.80
2018-10-02T22:15:00.729Z,9.80
2018-10-02T22:17:29.062Z,9.80
2018-10-02T22:19:57.436Z,9.80
2018-10-02T22:22:25.860Z,9.80
2018-10-02T22:24:54.204Z,9.90
2018-10-02T22:27:23.369Z,9.90
2018-10-02T22:29:51.806Z,9.90
2018-10-02T22:32:20.164Z,9.80
2018-10-02T22:34:48.561Z,9.80
2018-10-02T22:37:16.960Z,9.80
2018-10-02T22:39:45.320Z,9.80
2018-10-02T22:42:13.680Z,9.80
2018-10-02T22:44:42.112Z,9.80
2018-10-02T22:47:10.495Z,9.80
2018-10-02T22:49:38.918Z,9.70
2018-10-02T22:52:07.445Z,9.70
2018-10-02T22:54:36.075Z,9.70
2018-10-02T22:57:04.421Z,9.60
2018-10-02T22:59:32.857Z,9.60
2018-10-02T23:02:01.303Z,9.60
2018-10-02T23:04:29.704Z,9.60
2018-10-02T23:06:58.108Z,9.60
2018-10-02T23:09:26.481Z,9.70
2018-10-02T23:11:54.844Z,9.60
2018-10-02T23:14:24.199Z,9.60
2018-10-02T23:16:52.540Z,9.60
2018-10-02T23:19:20.912Z,9.60
2018-10-02T23:21:49.355Z,9.60
2018-10-02T23:24:17.731Z,9.60
2018-10-02T23:26:46.097Z,9.60
2018-10-02T23:29:14.535Z,9.60
2018-10-02T23:31:42.947Z,9.60
2018-10-02T23:34:11.292Z,9.60
2018-10-02T23:36:39.830Z,9.60
2018-10-02T23:39:08.922Z,9.60
2018-10-02T23:41:37.269Z,9.50
2018-10-02T23:44:05.684Z,9.50
2018-10-02T23:46:34.197Z,9.40
2018-10-02T23:49:02.565Z,9.40
2018-10-02T23:51:30.993Z,9.40
2018-10-02T23:53:59.350Z,9.40
2018-10-02T23:56:27.732Z,9.40
2018-10-02T23:58:56.144Z,9.30
